createdAt,value
2019-05-01T00:02:24.347Z,31.03
2019-05-01T00:05:04.944Z,32.30
2019-05-01T00:07:37.593Z,34.07
2019-05-01T00:10:09.723Z,45.57
2019-05-01T00:12:41.615Z,44.70
2019-05-01T00:15:14.238Z,44.87
2019-05-01T00:17:45.855Z,37.57
2019-05-01T00:20:17.916Z,37.83
2019-05-01T00:22:51.253Z,38.60
2019-05-01T00:25:23.142Z,47.43
2019-05-01T00:27:55.338Z,50.27
2019-05-01T00:30:30.145Z,51.53
2019-05-01T00:33:00.904Z,46.07
2019-05-01T00:35:33.228Z,46.87
2019-05-01T00:38:06.074Z,48.17
2019-05-01T00:40:37.516Z,48.27
2019-05-01T00:43:09.575Z,49.53
2019-05-01T00:45:41.204Z,47.90
2019-05-01T00:48:13.146Z,47.87
2019-05-01T00:50:44.650Z,47.10
2019-05-01T00:53:16.434Z,39.47
2019-05-01T00:56:12.840Z,38.43
2019-05-01T00:59:02.944Z,36.67
2019-05-01T01:01:56.304Z,38.50
2019-05-01T01:04:28.224Z,44.17
2019-05-01T01:06:59.730Z,43.70
2019-05-01T01:09:31.198Z,41.57
2019-05-01T01:12:02.633Z,46.10
2019-05-01T01:14:34.650Z,50.37
2019-05-01T01:17:08.386Z,49.33
2019-05-01T01:19:39.786Z,52.33
2019-05-01T01:22:11.162Z,51.30
2019-05-01T01:24:42.788Z,46.27
2019-05-01T01:27:14.419Z,49.30
2019-05-01T01:29:47.006Z,48.77
2019-05-01T01:32:18.812Z,48.53
2019-05-01T01:34:50.832Z,52.33
2019-05-01T01:37:22.966Z,47.13
2019-05-01T01:39:55.239Z,50.60
2019-05-01T01:42:27.448Z,52.17
2019-05-01T01:45:15.517Z,54.00
2019-05-01T01:48:06.580Z,54.70
2019-05-01T01:50:40.381Z,54.47
2019-05-01T01:53:15.658Z,55.03
2019-05-01T01:55:48.471Z,52.17
2019-05-01T01:58:21.609Z,50.53
2019-05-01T02:01:11.240Z,52.63
2019-05-01T02:03:45.968Z,53.23
2019-05-01T02:06:18.191Z,48.13
2019-05-01T02:08:56.215Z,53.40
2019-05-01T02:11:23.625Z,52.33
2019-05-01T02:13:58.982Z,51.47
2019-05-01T02:16:32.342Z,51.00
2019-05-01T02:19:05.595Z,51.27
2019-05-01T02:21:39.111Z,50.57
2019-05-01T02:24:10.727Z,53.33
2019-05-01T02:26:46.558Z,51.90
2019-05-01T02:29:27.209Z,52.20
2019-05-01T02:32:00.587Z,52.73
2019-05-01T02:34:33.138Z,55.33
2019-05-01T02:37:05.107Z,54.70
2019-05-01T02:39:38.106Z,54.10
2019-05-01T02:42:12.979Z,56.00
2019-05-01T02:44:49.790Z,55.20
2019-05-01T02:47:26.975Z,56.27
2019-05-01T02:50:04.327Z,54.37
2019-05-01T02:52:38.108Z,58.27
2019-05-01T02:55:37.106Z,52.40
2019-05-01T02:58:10.121Z,54.97
2019-05-01T03:00:43.083Z,61.60
2019-05-01T03:03:15.173Z,52.47
2019-05-01T03:05:49.425Z,56.13
2019-05-01T03:08:22.385Z,58.13
2019-05-01T03:10:54.197Z,54.47
2019-05-01T03:13:27.857Z,51.93
2019-05-01T03:15:59.685Z,52.77
2019-05-01T03:18:36.533Z,54.93
2019-05-01T03:21:14.080Z,52.43
2019-05-01T03:23:50.991Z,49.03
2019-05-01T03:26:22.692Z,50.50
2019-05-01T03:28:54.758Z,50.17
2019-05-01T03:31:26.548Z,51.20
2019-05-01T03:33:58.866Z,55.47
2019-05-01T03:36:30.994Z,56.83
2019-05-01T03:39:04.042Z,57.30
2019-05-01T03:41:35.905Z,57.57
2019-05-01T03:44:08.323Z,63.10
2019-05-01T03:46:40.235Z,57.00
2019-05-01T03:49:12.114Z,60.80
2019-05-01T03:51:44.084Z,57.83
2019-05-01T03:54:16.043Z,58.50
2019-05-01T03:56:47.768Z,58.43
2019-05-01T03:59:19.968Z,58.73
2019-05-01T04:01:59.079Z,59.43
2019-05-01T04:04:31.327Z,59.17
2019-05-01T04:07:03.278Z,58.40
2019-05-01T04:09:35.947Z,59.27
2019-05-01T04:12:10.108Z,58.93
2019-05-01T04:14:42.106Z,56.20
2019-05-01T04:17:31.847Z,55.37
2019-05-01T04:20:05.074Z,58.97
2019-05-01T04:22:36.886Z,54.60
2019-05-01T04:25:10.221Z,59.53
2019-05-01T04:27:44.168Z,57.40
2019-05-01T04:30:28.625Z,58.47
2019-05-01T04:33:02.795Z,56.80
2019-05-01T04:35:54.669Z,55.57
2019-05-01T04:38:28.344Z,56.10
2019-05-01T04:41:00.680Z,57.77
2019-05-01T04:43:32.631Z,56.00
2019-05-01T04:46:05.087Z,55.37
2019-05-01T04:48:36.730Z,57.83
2019-05-01T04:51:08.674Z,54.17
2019-05-01T04:53:41.601Z,54.80
2019-05-01T04:56:13.314Z,56.33
2019-05-01T04:58:45.346Z,57.17
2019-05-01T05:01:17.515Z,60.40
2019-05-01T05:03:50.056Z,60.03
2019-05-01T05:06:21.799Z,59.23
2019-05-01T05:08:54.841Z,58.67
2019-05-01T05:11:28.253Z,62.40
2019-05-01T05:14:10.913Z,58.87
2019-05-01T05:16:58.872Z,57.87
2019-05-01T05:19:30.857Z,55.37
2019-05-01T05:22:02.894Z,56.47
2019-05-01T05:24:35.092Z,57.60
2019-05-01T05:27:08.348Z,56.13
2019-05-01T05:29:40.746Z,55.77
2019-05-01T05:32:15.423Z,62.17
2019-05-01T05:34:49.203Z,56.77
2019-05-01T05:37:27.204Z,55.40
2019-05-01T05:40:02.205Z,56.93
2019-05-01T05:42:34.498Z,58.97
2019-05-01T05:45:07.598Z,57.37
2019-05-01T05:47:39.406Z,56.20
2019-05-01T05:50:18.327Z,52.97
2019-05-01T05:52:57.854Z,55.63
2019-05-01T05:55:47.998Z,53.87
2019-05-01T05:58:27.332Z,60.10
2019-05-01T06:01:18.966Z,55.67
2019-05-01T06:04:18.323Z,59.47
2019-05-01T06:07:20.956Z,57.53
2019-05-01T06:10:28.898Z,56.47
2019-05-01T06:13:21.918Z,55.53
2019-05-01T06:16:16.151Z,56.33
2019-05-01T06:19:00.214Z,54.53
2019-05-01T06:22:00.162Z,54.50
2019-05-01T06:24:40.670Z,53.60
2019-05-01T06:27:13.734Z,55.30
2019-05-01T06:29:44.829Z,53.60
2019-05-01T06:32:16.619Z,52.20
2019-05-01T06:34:48.735Z,53.80
2019-05-01T06:37:24.961Z,56.07
2019-05-01T06:39:54.031Z,60.50
2019-05-01T06:42:26.309Z,57.33
2019-05-01T06:45:05.035Z,55.90
2019-05-01T06:48:01.958Z,55.03
2019-05-01T06:50:55.990Z,56.93
2019-05-01T06:53:28.413Z,49.80
2019-05-01T06:56:00.017Z,54.00
2019-05-01T06:58:32.839Z,53.93
2019-05-01T07:01:05.393Z,55.73
2019-05-01T07:03:40.796Z,55.37
2019-05-01T07:06:14.384Z,52.83
2019-05-01T07:08:45.674Z,53.37
2019-05-01T07:11:17.417Z,53.27
2019-05-01T07:13:55.701Z,53.37
2019-05-01T07:16:27.191Z,54.77
2019-05-01T07:19:05.757Z,57.07
2019-05-01T07:21:36.131Z,57.83
2019-05-01T07:24:08.609Z,54.93
2019-05-01T07:26:43.812Z,63.20
2019-05-01T07:29:16.888Z,59.27
2019-05-01T07:31:48.824Z,57.63
2019-05-01T07:34:21.755Z,60.23
2019-05-01T07:36:54.890Z,61.40
2019-05-01T07:39:26.602Z,62.97
2019-05-01T07:42:18.166Z,62.27
2019-05-01T07:44:52.796Z,59.00
2019-05-01T07:47:34.468Z,66.53
2019-05-01T07:50:09.179Z,68.70
2019-05-01T07:52:43.032Z,67.93
2019-05-01T07:55:18.333Z,66.67
2019-05-01T07:57:51.108Z,68.63
2019-05-01T08:00:41.455Z,63.47
2019-05-01T08:03:13.161Z,68.07
2019-05-01T08:05:46.741Z,67.93
2019-05-01T08:08:18.962Z,70.30
2019-05-01T08:10:51.270Z,73.53
2019-05-01T08:13:25.259Z,68.57
2019-05-01T08:15:56.912Z,66.97
2019-05-01T08:18:43.996Z,67.40
2019-05-01T08:21:38.332Z,67.57
2019-05-01T08:24:10.122Z,66.20
2019-05-01T08:26:44.246Z,67.13
2019-05-01T08:29:42.129Z,69.30
2019-05-01T08:32:23.472Z,69.83
2019-05-01T08:35:00.559Z,76.83
2019-05-01T08:37:30.719Z,69.70
2019-05-01T08:40:02.421Z,64.27
2019-05-01T08:42:37.782Z,65.90
2019-05-01T08:45:30.866Z,64.40
2019-05-01T08:48:13.847Z,68.70
2019-05-01T08:50:45.705Z,68.17
2019-05-01T08:53:22.074Z,68.27
2019-05-01T08:55:52.179Z,67.13
2019-05-01T08:58:26.294Z,68.73
2019-05-01T09:00:57.922Z,68.00
2019-05-01T09:03:29.803Z,55.17
2019-05-01T09:06:01.737Z,52.93
2019-05-01T09:08:34.470Z,56.63
2019-05-01T09:11:06.533Z,57.80
2019-05-01T09:13:39.227Z,52.07
2019-05-01T09:16:11.160Z,46.67
2019-05-01T09:18:43.195Z,57.37
2019-05-01T09:21:15.124Z,51.57
2019-05-01T09:23:51.410Z,52.13
2019-05-01T09:26:45.391Z,49.60
2019-05-01T09:29:24.168Z,45.33
2019-05-01T09:31:56.880Z,44.00
2019-05-01T09:34:28.701Z,43.23
2019-05-01T09:37:00.582Z,48.33
2019-05-01T09:39:34.734Z,47.70
2019-05-01T09:42:06.971Z,45.70
2019-05-01T09:44:38.658Z,49.63
2019-05-01T09:47:12.340Z,47.00
2019-05-01T09:49:44.367Z,47.43
2019-05-01T09:52:38.016Z,47.13
2019-05-01T09:55:17.993Z,46.07
2019-05-01T09:57:50.902Z,45.87
2019-05-01T10:00:29.499Z,47.20
2019-05-01T10:03:01.632Z,48.40
2019-05-01T10:05:33.299Z,49.90
2019-05-01T10:08:05.776Z,47.40
2019-05-01T10:10:37.710Z,52.33
2019-05-01T10:13:09.952Z,46.57
2019-05-01T10:15:42.384Z,47.27
2019-05-01T10:18:14.584Z,48.93
2019-05-01T10:20:46.826Z,49.47
2019-05-01T10:23:18.744Z,48.23
2019-05-01T10:25:53.779Z,47.17
2019-05-01T10:28:37.549Z,52.27
2019-05-01T10:31:14.201Z,44.33
2019-05-01T10:33:47.267Z,49.10
2019-05-01T10:36:36.509Z,49.67
2019-05-01T10:39:09.631Z,48.10
2019-05-01T10:41:46.440Z,49.97
2019-05-01T10:44:17.883Z,54.73
2019-05-01T10:46:49.786Z,51.30
2019-05-01T10:49:21.779Z,57.30
2019-05-01T10:51:53.377Z,55.70
2019-05-01T10:54:26.609Z,51.57
2019-05-01T10:56:58.891Z,51.67
2019-05-01T10:59:32.972Z,52.70
2019-05-01T11:02:06.356Z,49.90
2019-05-01T11:04:39.699Z,49.87
2019-05-01T11:07:12.544Z,48.27
2019-05-01T11:09:44.514Z,50.40
2019-05-01T11:12:16.730Z,49.43
2019-05-01T11:14:49.024Z,47.00
2019-05-01T11:17:21.044Z,47.93
2019-05-01T11:19:52.939Z,48.43
2019-05-01T11:22:25.663Z,47.00
2019-05-01T11:24:57.676Z,45.50
2019-05-01T11:27:30.813Z,43.30
2019-05-01T11:30:02.463Z,43.47
2019-05-01T11:32:49.007Z,41.97
2019-05-01T11:35:49.133Z,43.63
2019-05-01T11:38:38.556Z,43.57
2019-05-01T11:41:15.101Z,50.13
2019-05-01T11:43:46.883Z,42.17
2019-05-01T11:46:19.041Z,43.47
2019-05-01T11:48:51.633Z,39.17
2019-05-01T11:51:25.805Z,43.70
2019-05-01T11:53:57.509Z,41.07
2019-05-01T11:56:29.539Z,44.00
2019-05-01T11:59:01.478Z,41.60
2019-05-01T12:01:33.501Z,41.30
2019-05-01T12:04:07.165Z,39.77
2019-05-01T12:06:40.509Z,36.70
2019-05-01T12:09:12.640Z,38.10
2019-05-01T12:11:46.422Z,36.47
2019-05-01T12:14:19.668Z,37.27
2019-05-01T12:16:58.478Z,37.03
2019-05-01T12:19:31.253Z,38.50
2019-05-01T12:22:03.000Z,36.43
2019-05-01T12:24:35.522Z,39.50
2019-05-01T12:27:09.154Z,34.40
2019-05-01T12:29:41.214Z,35.43
2019-05-01T12:32:13.070Z,33.27
2019-05-01T12:34:44.834Z,36.93
2019-05-01T12:37:26.788Z,36.07
2019-05-01T12:39:58.462Z,33.37
2019-05-01T12:42:31.340Z,35.13
2019-05-01T12:45:03.719Z,33.07
2019-05-01T12:47:54.231Z,34.93
2019-05-01T12:50:26.391Z,34.03
2019-05-01T12:53:24.996Z,33.63
2019-05-01T12:56:16.560Z,31.83
2019-05-01T12:58:50.943Z,32.40
2019-05-01T13:01:23.704Z,35.87
2019-05-01T13:03:55.479Z,33.97
2019-05-01T13:06:27.597Z,32.27
2019-05-01T13:08:59.519Z,30.03
2019-05-01T13:11:32.041Z,32.27
2019-05-01T13:14:03.752Z,31.57
2019-05-01T13:16:37.255Z,31.33
2019-05-01T13:19:09.182Z,32.90
2019-05-01T13:21:41.391Z,31.17
2019-05-01T13:24:13.742Z,30.43
2019-05-01T13:26:50.923Z,28.73
2019-05-01T13:29:27.064Z,31.67
2019-05-01T13:32:24.294Z,31.00
2019-05-01T13:34:55.966Z,32.50
2019-05-01T13:37:29.388Z,32.50
2019-05-01T13:40:03.029Z,32.83
2019-05-01T13:42:34.879Z,34.17
2019-05-01T13:45:07.852Z,33.60
2019-05-01T13:47:39.802Z,31.87
2019-05-01T13:50:12.336Z,32.63
2019-05-01T13:52:44.544Z,31.83
2019-05-01T13:55:17.172Z,35.53
2019-05-01T13:57:50.491Z,32.37
2019-05-01T14:00:23.379Z,31.90
2019-05-01T14:02:55.511Z,36.03
2019-05-01T14:05:27.543Z,32.97
2019-05-01T14:07:59.753Z,34.43
2019-05-01T14:10:32.144Z,33.43
2019-05-01T14:13:04.168Z,35.93
2019-05-01T14:15:36.752Z,35.20
2019-05-01T14:18:12.307Z,38.27
2019-05-01T14:21:02.274Z,37.73
2019-05-01T14:23:43.143Z,38.10
2019-05-01T14:26:17.004Z,37.27
2019-05-01T14:28:49.650Z,35.27
2019-05-01T14:31:21.200Z,35.60
2019-05-01T14:33:53.793Z,41.00
2019-05-01T14:36:25.840Z,38.80
2019-05-01T14:38:57.576Z,39.23
2019-05-01T14:41:29.646Z,37.70
2019-05-01T14:44:01.482Z,36.40
2019-05-01T14:46:33.155Z,39.07
2019-05-01T14:49:05.537Z,38.30
2019-05-01T14:51:38.040Z,36.07
2019-05-01T14:54:09.765Z,35.90
2019-05-01T14:56:43.429Z,36.90
2019-05-01T14:59:15.739Z,37.87
2019-05-01T15:01:47.983Z,36.20
2019-05-01T15:04:21.547Z,37.50
2019-05-01T15:06:55.751Z,40.43
2019-05-01T15:09:29.628Z,38.17
2019-05-01T15:12:06.087Z,36.80
2019-05-01T15:15:03.911Z,38.80
2019-05-01T15:18:05.073Z,39.13
2019-05-01T15:20:37.127Z,37.70
2019-05-01T15:23:08.925Z,39.00
2019-05-01T15:25:40.915Z,37.93
2019-05-01T15:28:12.837Z,37.73
2019-05-01T15:30:45.447Z,39.87
2019-05-01T15:33:17.433Z,36.67
2019-05-01T15:35:49.313Z,38.77
2019-05-01T15:38:21.384Z,39.60
2019-05-01T15:41:21.422Z,41.80
2019-05-01T15:44:11.895Z,41.10
2019-05-01T15:46:44.371Z,41.80
2019-05-01T15:49:16.075Z,41.80
2019-05-01T15:51:47.666Z,39.40
2019-05-01T15:54:19.550Z,39.03
2019-05-01T15:56:51.304Z,40.80
2019-05-01T15:59:25.243Z,40.77
2019-05-01T16:01:57.124Z,40.57
2019-05-01T16:04:29.111Z,39.97
2019-05-01T16:07:01.174Z,40.53
2019-05-01T16:09:32.779Z,42.00
2019-05-01T16:12:22.514Z,46.00
2019-05-01T16:14:54.010Z,39.90
2019-05-01T16:17:26.817Z,36.20
2019-05-01T16:19:58.196Z,40.87
2019-05-01T16:22:29.871Z,40.40
2019-05-01T16:25:02.226Z,39.57
2019-05-01T16:27:35.341Z,40.67
2019-05-01T16:30:07.539Z,40.90
2019-05-01T16:32:39.252Z,41.70
2019-05-01T16:35:11.317Z,42.77
2019-05-01T16:37:43.003Z,40.83
2019-05-01T16:40:32.005Z,43.73
2019-05-01T16:43:05.506Z,37.63
2019-05-01T16:45:36.895Z,40.33
2019-05-01T16:48:08.616Z,42.07
2019-05-01T16:50:41.544Z,44.23
2019-05-01T16:53:14.908Z,40.57
2019-05-01T16:55:46.937Z,44.57
2019-05-01T16:58:18.866Z,42.30
2019-05-01T17:00:59.835Z,43.70
2019-05-01T17:03:38.155Z,43.40
2019-05-01T17:06:24.822Z,39.80
2019-05-01T17:09:25.264Z,42.00
2019-05-01T17:11:57.083Z,42.00
2019-05-01T17:14:28.762Z,42.77
2019-05-01T17:17:01.092Z,38.93
2019-05-01T17:19:33.010Z,46.90
2019-05-01T17:22:09.083Z,41.97
2019-05-01T17:24:38.459Z,43.10
2019-05-01T17:27:10.318Z,41.03
2019-05-01T17:29:42.515Z,41.83
2019-05-01T17:32:16.109Z,40.80
2019-05-01T17:34:47.924Z,43.30
2019-05-01T17:37:21.433Z,44.40
2019-05-01T17:39:52.902Z,42.87
2019-05-01T17:42:24.943Z,41.53
2019-05-01T17:44:59.677Z,43.20
2019-05-01T17:47:31.126Z,42.33
2019-05-01T17:50:04.548Z,45.80
2019-05-01T17:52:36.290Z,46.30
2019-05-01T17:55:08.622Z,41.27
2019-05-01T17:57:40.287Z,49.57
2019-05-01T18:00:37.681Z,49.23
2019-05-01T18:03:28.342Z,42.40
2019-05-01T18:06:11.627Z,44.97
2019-05-01T18:08:43.588Z,44.70
2019-05-01T18:11:16.617Z,45.37
2019-05-01T18:13:48.960Z,45.73
2019-05-01T18:16:20.690Z,43.33
2019-05-01T18:18:53.396Z,46.43
2019-05-01T18:21:26.240Z,45.67
2019-05-01T18:24:23.240Z,46.77
2019-05-01T18:27:05.835Z,48.57
2019-05-01T18:29:48.780Z,50.13
2019-05-01T18:32:27.543Z,50.70
2019-05-01T18:34:59.768Z,54.33
2019-05-01T18:37:38.174Z,53.77
2019-05-01T18:40:15.700Z,54.13
2019-05-01T18:42:48.152Z,52.57
2019-05-01T18:45:53.498Z,53.33
2019-05-01T18:48:26.114Z,58.43
2019-05-01T18:50:58.162Z,57.70
2019-05-01T18:53:30.159Z,56.53
2019-05-01T18:56:05.450Z,54.77
2019-05-01T18:58:35.786Z,53.50
2019-05-01T19:01:09.899Z,56.80
2019-05-01T19:03:44.186Z,56.67
2019-05-01T19:06:16.581Z,56.67
2019-05-01T19:08:48.403Z,57.83
2019-05-01T19:11:20.079Z,53.23
2019-05-01T19:13:51.978Z,53.30
2019-05-01T19:16:23.900Z,55.17
2019-05-01T19:18:55.587Z,53.03
2019-05-01T19:21:29.761Z,56.93
2019-05-01T19:24:02.788Z,53.60
2019-05-01T19:26:38.290Z,58.63
2019-05-01T19:29:13.273Z,54.43
2019-05-01T19:31:45.375Z,56.53
2019-05-01T19:34:17.394Z,54.53
2019-05-01T19:36:51.457Z,59.67
2019-05-01T19:39:23.515Z,56.90
2019-05-01T19:41:56.567Z,59.20
2019-05-01T19:44:28.164Z,56.23
2019-05-01T19:46:59.962Z,51.23
2019-05-01T19:49:31.704Z,59.10
2019-05-01T19:52:03.711Z,56.10
2019-05-01T19:54:35.382Z,57.40
2019-05-01T19:57:08.803Z,53.90
2019-05-01T19:59:40.615Z,56.03
2019-05-01T20:02:17.302Z,49.97
2019-05-01T20:04:50.562Z,52.20
2019-05-01T20:07:21.614Z,50.90
2019-05-01T20:09:57.175Z,48.30
2019-05-01T20:12:29.917Z,53.20
2019-05-01T20:15:01.724Z,55.27
2019-05-01T20:17:33.785Z,52.27
2019-05-01T20:20:06.528Z,50.37
2019-05-01T20:22:39.046Z,47.70
2019-05-01T20:25:14.758Z,50.07
2019-05-01T20:27:52.614Z,53.00
2019-05-01T20:30:20.966Z,48.37
2019-05-01T20:32:58.182Z,55.73
2019-05-01T20:35:28.490Z,52.87
2019-05-01T20:38:00.873Z,56.47
2019-05-01T20:40:32.543Z,54.63
2019-05-01T20:43:05.847Z,54.60
2019-05-01T20:45:44.976Z,58.37
2019-05-01T20:48:18.565Z,60.37
2019-05-01T20:50:50.802Z,57.33
2019-05-01T20:53:22.412Z,56.37
2019-05-01T20:56:17.413Z,54.03
2019-05-01T20:58:48.934Z,58.67
2019-05-01T21:01:24.329Z,57.60
2019-05-01T21:04:02.097Z,59.07
2019-05-01T21:06:39.161Z,60.43
2019-05-01T21:09:16.637Z,57.60
2019-05-01T21:12:04.504Z,58.33
2019-05-01T21:14:24.121Z,58.50
2019-05-01T21:16:55.668Z,57.93
2019-05-01T21:19:28.743Z,64.13
2019-05-01T21:22:00.469Z,49.70
2019-05-01T21:24:33.977Z,55.70
2019-05-01T21:27:05.699Z,58.43
2019-05-01T21:29:39.011Z,53.23
2019-05-01T21:32:10.975Z,55.60
2019-05-01T21:34:43.631Z,52.57
2019-05-01T21:37:15.001Z,56.23
2019-05-01T21:39:46.516Z,52.87
2019-05-01T21:42:18.615Z,55.07
2019-05-01T21:44:50.435Z,53.23
2019-05-01T21:47:23.641Z,63.10
2019-05-01T21:49:56.297Z,58.37
2019-05-01T21:52:27.775Z,62.93
2019-05-01T21:55:20.697Z,67.57
2019-05-01T21:57:52.142Z,64.27
2019-05-01T22:00:24.732Z,64.87
2019-05-01T22:02:59.653Z,58.93
2019-05-01T22:05:34.684Z,53.47
2019-05-01T22:08:07.397Z,51.00
2019-05-01T22:10:51.371Z,58.40
2019-05-01T22:13:12.947Z,59.00
2019-05-01T22:15:49.001Z,68.60
2019-05-01T22:18:34.928Z,76.87
2019-05-01T22:21:21.194Z,89.60
2019-05-01T22:24:31.394Z,75.00
2019-05-01T22:27:09.960Z,68.30
2019-05-01T22:29:47.463Z,76.17
2019-05-01T22:32:32.332Z,67.07
2019-05-01T22:35:14.528Z,68.57
2019-05-01T22:37:46.134Z,62.20
2019-05-01T22:40:21.152Z,58.00
2019-05-01T22:42:53.491Z,47.80
2019-05-01T22:45:26.173Z,48.83
2019-05-01T22:47:59.286Z,46.23
2019-05-01T22:50:30.717Z,56.73
2019-05-01T22:53:02.460Z,50.13
2019-05-01T22:55:34.118Z,52.60
2019-05-01T22:58:06.329Z,52.60
2019-05-01T23:00:44.156Z,57.40
2019-05-01T23:03:42.300Z,58.27
2019-05-01T23:06:14.650Z,56.57
2019-05-01T23:08:48.823Z,55.80
2019-05-01T23:11:21.342Z,61.97
2019-05-01T23:13:52.914Z,57.03
2019-05-01T23:16:30.085Z,54.63
2019-05-01T23:19:01.630Z,50.07
2019-05-01T23:21:35.236Z,53.77
2019-05-01T23:24:07.155Z,46.70
2019-05-01T23:26:38.965Z,48.37
2019-05-01T23:29:10.682Z,54.67
2019-05-01T23:31:43.904Z,53.13
2019-05-01T23:34:15.867Z,53.00
2019-05-01T23:36:48.469Z,50.43
2019-05-01T23:39:20.358Z,53.60
2019-05-01T23:41:52.042Z,53.50
2019-05-01T23:44:24.096Z,49.17
2019-05-01T23:46:57.018Z,53.07
2019-05-01T23:49:29.045Z,49.33
2019-05-01T23:52:03.291Z,57.60
2019-05-01T23:54:34.286Z,60.43
2019-05-01T23:57:05.833Z,67.50
2019-05-01T23:59:39.048Z,72.67
